Time;durP1;ratioP1;P1;durP2;ratioP2;P2;SDS_P1;SDS_P2;PMS_P1;PMS_P2;Temp;Humidity;BMP_temperature;BMP_pressure;BME280_temperature;BME280_humidity;BME280_pressure;Samples;Min_cycle;Max_cycle;Signal;HPM_P1;HPM_P2
2023/06/07 00:00:36;;;;;;;9.02;4.35;;;19.50;73.40;;;;;;5096392;28;20063;-76
2023/06/07 00:03:09;;;;;;;11.30;5.15;;;19.50;73.20;;;;;;5096289;28;20461;-78
2023/06/07 00:05:36;;;;;;;8.70;4.63;;;19.40;73.10;;;;;;5079221;28;20384;-80
2023/06/07 00:08:02;;;;;;;7.78;4.03;;;19.30;73.40;;;;;;5095951;28;20044;-79
2023/06/07 00:10:28;;;;;;;11.93;4.63;;;19.20;73.70;;;;;;5096094;28;20029;-80
2023/06/07 00:12:54;;;;;;;11.32;5.07;;;19.20;73.70;;;;;;5078146;28;20032;-77
2023/06/07 00:15:20;;;;;;;7.30;4.32;;;19.20;73.70;;;;;;5095817;28;20031;-79
2023/06/07 00:17:45;;;;;;;6.95;4.18;;;19.10;73.90;;;;;;5095999;28;20028;-77
2023/06/07 00:20:12;;;;;;;9.65;4.78;;;19.20;73.90;;;;;;5077899;28;20039;-81
2023/06/07 00:22:38;;;;;;;11.65;4.90;;;19.10;73.70;;;;;;5096055;28;20384;-79
2023/06/07 00:25:05;;;;;;;9.75;4.72;;;19.00;73.90;;;;;;5095653;28;20024;-80
2023/06/07 00:27:31;;;;;;;12.05;5.18;;;18.80;74.40;;;;;;5095609;28;20036;-80
2023/06/07 00:29:58;;;;;;;8.13;4.32;;;18.80;74.70;;;;;;5077905;28;20047;-81
2023/06/07 00:32:23;;;;;;;13.43;5.30;;;18.80;74.80;;;;;;5095801;28;20036;-80
2023/06/07 00:34:49;;;;;;;8.65;4.13;;;18.80;74.50;;;;;;5094455;28;20035;-76
2023/06/07 00:37:15;;;;;;;12.15;4.95;;;18.80;74.60;;;;;;5077205;28;20059;-80
2023/06/07 00:39:41;;;;;;;7.68;4.43;;;18.70;74.70;;;;;;5095666;28;20032;-79
2023/06/07 00:42:06;;;;;;;6.53;3.33;;;18.70;74.80;;;;;;5077574;28;20028;-80
2023/06/07 00:44:32;;;;;;;9.43;4.15;;;18.80;74.70;;;;;;5095658;28;20039;-80
2023/06/07 00:46:58;;;;;;;9.35;4.55;;;18.90;74.50;;;;;;5077139;28;20028;-79
2023/06/07 00:49:24;;;;;;;8.98;5.03;;;18.90;74.50;;;;;;5093778;28;20084;-77
2023/06/07 00:51:50;;;;;;;7.45;4.15;;;18.90;74.10;;;;;;5095464;28;20103;-79
2023/06/07 00:54:17;;;;;;;10.43;4.47;;;18.70;74.50;;;;;;5077449;28;20148;-80
2023/06/07 00:56:50;;;;;;;17.23;5.57;;;18.80;74.60;;;;;;5094913;28;20052;-80
2023/06/07 00:59:20;;;;;;;6.00;3.88;;;18.80;74.60;;;;;;5095022;28;20028;-79
2023/06/07 01:01:48;;;;;;;9.00;4.50;;;18.70;74.50;;;;;;5093699;28;20035;-81
2023/06/07 01:04:18;;;;;;;12.65;4.38;;;18.80;74.60;;;;;;5095198;28;20113;-80
2023/06/07 01:06:43;;;;;;;9.20;4.07;;;18.70;74.50;;;;;;5093589;28;20081;-81
2023/06/07 01:09:13;;;;;;;11.20;3.58;;;18.70;74.80;;;;;;5077062;28;20410;-81
2023/06/07 01:11:42;;;;;;;10.85;4.20;;;18.70;74.80;;;;;;5094986;28;20453;-78
2023/06/07 01:14:10;;;;;;;11.63;4.68;;;18.60;74.80;;;;;;5094708;28;20035;-80
2023/06/07 01:16:38;;;;;;;10.82;4.45;;;18.30;75.50;;;;;;5094617;28;20495;-80
2023/06/07 01:19:04;;;;;;;6.88;3.80;;;18.20;76.00;;;;;;5076985;28;20064;-79
2023/06/07 01:21:36;;;;;;;9.57;4.32;;;18.30;76.10;;;;;;5093475;28;20109;-80
2023/06/07 01:24:03;;;;;;;8.40;3.78;;;18.20;75.90;;;;;;5076705;28;20028;-79
2023/06/07 01:26:29;;;;;;;8.63;3.70;;;18.20;76.10;;;;;;5094709;28;20086;-79
2023/06/07 01:29:05;;;;;;;11.55;4.72;;;18.40;75.90;;;;;;5092851;28;20434;-79
2023/06/07 01:31:35;;;;;;;8.35;3.45;;;18.40;75.50;;;;;;5078064;28;20494;-80
2023/06/07 01:34:03;;;;;;;7.75;4.10;;;18.50;75.60;;;;;;5093176;28;20472;-79
2023/06/07 01:36:31;;;;;;;7.63;3.67;;;18.60;75.40;;;;;;5094307;28;20085;-77
2023/06/07 01:38:59;;;;;;;12.50;4.82;;;18.60;75.30;;;;;;5094388;28;20086;-79
2023/06/07 01:41:28;;;;;;;9.65;3.70;;;18.40;75.10;;;;;;5094267;28;20036;-80
2023/06/07 01:43:54;;;;;;;12.73;4.65;;;18.20;75.70;;;;;;5094117;28;20028;-79
2023/06/07 01:46:20;;;;;;;8.75;4.80;;;18.20;75.90;;;;;;5076138;28;20032;-78
2023/06/07 01:48:46;;;;;;;10.02;4.82;;;18.30;76.00;;;;;;5076050;28;20082;-80
2023/06/07 01:51:12;;;;;;;13.55;4.70;;;18.30;75.70;;;;;;5094510;28;20080;-80
2023/06/07 01:53:38;;;;;;;8.77;4.05;;;18.30;75.60;;;;;;5093973;28;20114;-78
2023/06/07 01:56:10;;;;;;;8.75;4.35;;;18.20;75.90;;;;;;5092492;28;20040;-77
2023/06/07 01:58:57;;;;;;;12.55;5.82;;;18.30;75.90;;;;;;5094245;28;20111;-79
2023/06/07 02:01:35;;;;;;;12.57;5.03;;;18.20;75.80;;;;;;5093909;28;20032;-79
2023/06/07 02:04:03;;;;;;;8.90;3.85;;;18.00;76.30;;;;;;5094226;28;20031;-80
2023/06/07 02:06:32;;;;;;;13.48;4.95;;;17.90;76.80;;;;;;5075819;28;20028;-79
2023/06/07 02:09:03;;;;;;;11.75;4.25;;;17.80;77.00;;;;;;5092566;28;20036;-79
2023/06/07 02:11:31;;;;;;;10.23;4.15;;;17.70;77.20;;;;;;5093846;28;20020;-78
2023/06/07 02:13:58;;;;;;;13.02;4.60;;;17.80;77.20;;;;;;5075788;28;20480;-78
2023/06/07 02:16:37;;;;;;;11.25;4.55;;;17.90;77.00;;;;;;5093633;28;20039;-80
2023/06/07 02:19:06;;;;;;;11.20;3.90;;;17.90;76.80;;;;;;5076279;28;20064;-79
2023/06/07 02:21:36;;;;;;;10.35;4.95;;;18.00;76.90;;;;;;5093880;28;20028;-80
2023/06/07 02:24:06;;;;;;;11.88;4.22;;;17.90;76.30;;;;;;5093216;28;20486;-79
2023/06/07 02:26:33;;;;;;;13.63;4.88;;;17.80;76.80;;;;;;5093393;28;20028;-78
2023/06/07 02:28:59;;;;;;;12.18;4.80;;;17.60;77.30;;;;;;5093715;28;20032;-79
2023/06/07 02:31:25;;;;;;;8.15;3.85;;;17.40;78.00;;;;;;5093535;28;20036;-80
2023/06/07 02:33:51;;;;;;;10.10;3.65;;;17.40;78.30;;;;;;5093626;28;20024;-79
2023/06/07 02:36:25;;;;;;;12.60;4.05;;;17.60;78.20;;;;;;5092713;28;20450;-80
2023/06/07 02:38:51;;;;;;;13.20;4.32;;;17.70;77.70;;;;;;5093394;28;20024;-77
2023/06/07 02:41:17;;;;;;;11.93;4.53;;;17.60;77.40;;;;;;5096080;28;20468;-78
2023/06/07 02:43:43;;;;;;;10.85;4.15;;;17.50;77.50;;;;;;5097832;28;20189;-80
2023/06/07 02:46:11;;;;;;;12.13;5.07;;;17.60;77.80;;;;;;5097760;28;20092;-79
2023/06/07 02:48:37;;;;;;;5.88;3.42;;;17.40;77.70;;;;;;5097723;28;20032;-79
2023/06/07 02:51:03;;;;;;;8.60;3.13;;;17.30;78.20;;;;;;5079442;28;20147;-78
2023/06/07 02:53:30;;;;;;;6.72;3.67;;;17.40;78.50;;;;;;5097395;28;20066;-80
2023/06/07 02:55:55;;;;;;;11.30;4.20;;;17.50;78.10;;;;;;5079365;28;20078;-80
2023/06/07 02:58:21;;;;;;;7.68;4.07;;;17.60;77.70;;;;;;5096288;28;20032;-79
2023/06/07 03:00:49;;;;;;;5.30;3.08;;;17.60;77.60;;;;;;5097415;28;20028;-80
2023/06/07 03:03:16;;;;;;;8.98;4.07;;;17.60;77.60;;;;;;5097453;28;20028;-77
2023/06/07 03:05:44;;;;;;;11.27;4.63;;;17.70;77.50;;;;;;5079137;28;20093;-80
2023/06/07 03:08:10;;;;;;;11.00;5.35;;;17.80;77.40;;;;;;5097446;28;20059;-77
2023/06/07 03:10:36;;;;;;;14.90;4.43;;;17.70;76.90;;;;;;5096314;28;20376;-79
2023/06/07 03:13:03;;;;;;;8.85;4.18;;;17.40;77.50;;;;;;5079193;28;20118;-78
2023/06/07 03:15:29;;;;;;;9.60;3.47;;;17.30;78.00;;;;;;5096969;28;20036;-77
2023/06/07 03:17:54;;;;;;;8.63;4.00;;;17.30;78.40;;;;;;5078891;28;20149;-79
2023/06/07 03:20:21;;;;;;;12.05;4.30;;;17.30;78.20;;;;;;5096640;28;20060;-78
2023/06/07 03:22:47;;;;;;;10.02;4.05;;;17.20;78.40;;;;;;5097099;28;20024;-81
2023/06/07 03:25:13;;;;;;;10.75;4.47;;;17.10;78.70;;;;;;5096805;28;20431;-77
2023/06/07 03:27:38;;;;;;;11.65;4.80;;;17.10;78.90;;;;;;5095258;28;20381;-77
2023/06/07 03:30:05;;;;;;;15.20;4.43;;;16.90;79.30;;;;;;5095406;28;20078;-79
2023/06/07 03:32:30;;;;;;;10.35;4.03;;;16.90;79.50;;;;;;5078976;28;20035;-79
2023/06/07 03:34:56;;;;;;;10.45;4.35;;;16.90;79.50;;;;;;5096942;28;20024;-77
2023/06/07 03:37:22;;;;;;;11.18;4.82;;;16.90;79.40;;;;;;5096546;28;20032;-77
2023/06/07 03:39:47;;;;;;;10.18;3.58;;;16.80;79.80;;;;;;5078471;28;20043;-78
2023/06/07 03:42:13;;;;;;;12.68;4.13;;;16.70;80.20;;;;;;5096463;28;20029;-78
2023/06/07 03:44:38;;;;;;;14.20;4.45;;;16.90;80.10;;;;;;5096625;28;20039;-78
2023/06/07 03:47:05;;;;;;;12.88;4.70;;;17.00;79.70;;;;;;5095263;28;20104;-77
2023/06/07 03:49:30;;;;;;;13.65;4.38;;;16.80;80.40;;;;;;5095015;28;20503;-78
2023/06/07 03:51:56;;;;;;;11.02;4.28;;;16.90;79.90;;;;;;5095837;28;20069;-79
2023/06/07 03:54:21;;;;;;;12.07;4.30;;;16.90;79.80;;;;;;5096502;28;20056;-77
2023/06/07 03:56:47;;;;;;;11.43;3.63;;;17.00;79.60;;;;;;5077893;28;20031;-78
2023/06/07 03:59:13;;;;;;;12.00;3.42;;;17.00;79.60;;;;;;5094964;28;20039;-78
2023/06/07 04:01:39;;;;;;;9.38;3.58;;;17.10;79.60;;;;;;5078332;28;20526;-78
2023/06/07 04:04:05;;;;;;;9.52;3.65;;;17.20;79.30;;;;;;5096387;28;20102;-78
2023/06/07 04:06:31;;;;;;;11.73;3.75;;;17.40;79.00;;;;;;5078400;28;20032;-78
2023/06/07 04:08:57;;;;;;;9.63;3.50;;;17.40;78.50;;;;;;5096274;28;20513;-79
2023/06/07 04:11:23;;;;;;;6.53;2.97;;;17.50;78.60;;;;;;5096080;28;20490;-79
2023/06/07 04:13:48;;;;;;;8.00;3.03;;;17.60;78.30;;;;;;5096167;28;20032;-80
2023/06/07 04:16:14;;;;;;;9.05;4.57;;;17.80;78.10;;;;;;5094832;28;20043;-78
2023/06/07 04:18:40;;;;;;;8.80;3.90;;;17.70;77.30;;;;;;5095876;28;20035;-79
2023/06/07 04:21:05;;;;;;;12.20;3.85;;;17.50;77.70;;;;;;5095993;28;20032;-81
2023/06/07 04:23:32;;;;;;;7.68;4.10;;;17.40;78.00;;;;;;5096313;28;20039;-78
2023/06/07 04:25:58;;;;;;;12.40;4.65;;;17.40;78.20;;;;;;5095545;28;20115;-79
2023/06/07 04:28:24;;;;;;;11.80;4.53;;;17.00;78.90;;;;;;5095863;28;20127;-77
2023/06/07 04:30:56;;;;;;;13.80;5.03;;;16.70;79.80;;;;;;5095714;28;20028;-80
2023/06/07 04:33:23;;;;;;;13.05;5.00;;;16.50;80.60;;;;;;5095590;28;20093;-77
2023/06/07 04:35:50;;;;;;;13.18;4.38;;;16.50;81.20;;;;;;5077801;28;20021;-79
2023/06/07 04:38:20;;;;;;;12.50;4.72;;;16.50;81.40;;;;;;5060807;28;20027;-77
2023/06/07 04:40:52;;;;;;;11.48;3.97;;;16.60;81.20;;;;;;5077463;28;20446;-77
2023/06/07 04:43:19;;;;;;;10.65;3.92;;;16.60;81.10;;;;;;5095313;28;20099;-78
2023/06/07 04:45:54;;;;;;;10.05;4.20;;;16.60;81.20;;;;;;5094155;28;20032;-76
2023/06/07 04:48:26;;;;;;;12.82;4.88;;;16.60;81.40;;;;;;5077755;28;20115;-77
2023/06/07 04:51:13;;;;;;;11.77;3.88;;;16.70;81.20;;;;;;5095009;28;20488;-77
2023/06/07 04:53:41;;;;;;;9.05;3.92;;;16.60;81.40;;;;;;5095263;28;20028;-76
2023/06/07 04:56:08;;;;;;;13.20;4.85;;;16.70;81.40;;;;;;5094880;28;20054;-77
2023/06/07 04:58:33;;;;;;;13.95;4.10;;;16.70;80.80;;;;;;5095271;28;20384;-77
2023/06/07 05:00:59;;;;;;;14.98;4.55;;;16.70;81.30;;;;;;5077072;28;20085;-76
2023/06/07 05:03:25;;;;;;;9.57;3.80;;;16.80;81.20;;;;;;5093941;28;20032;-77
2023/06/07 05:05:52;;;;;;;9.98;3.33;;;16.90;80.90;;;;;;5060131;28;20056;-79
2023/06/07 05:08:18;;;;;;;11.85;4.32;;;17.00;80.70;;;;;;5094929;28;20039;-76
2023/06/07 05:10:45;;;;;;;14.00;4.43;;;17.00;80.60;;;;;;5094905;28;20055;-79
2023/06/07 05:13:11;;;;;;;12.60;4.50;;;17.10;80.70;;;;;;5094690;28;20053;-76
2023/06/07 05:15:36;;;;;;;13.77;4.18;;;16.80;81.00;;;;;;5094727;28;20072;-77
2023/06/07 05:18:02;;;;;;;13.55;3.70;;;16.60;81.70;;;;;;5094830;28;20032;-77
2023/06/07 05:20:28;;;;;;;12.55;4.07;;;16.60;82.10;;;;;;5095018;28;20051;-78
2023/06/07 05:22:54;;;;;;;15.43;4.47;;;16.60;82.20;;;;;;5093351;28;20039;-76
2023/06/07 05:25:20;;;;;;;6.88;3.70;;;16.60;82.30;;;;;;5094643;28;20028;-77
2023/06/07 05:27:49;;;;;;;14.63;3.95;;;16.70;82.30;;;;;;5094153;28;20468;-80
2023/06/07 05:30:15;;;;;;;15.38;4.93;;;16.70;82.30;;;;;;5094558;28;20052;-77
2023/06/07 05:32:41;;;;;;;12.70;3.83;;;16.70;82.30;;;;;;5094519;28;20515;-77
2023/06/07 05:35:08;;;;;;;8.52;3.60;;;16.80;82.30;;;;;;5094245;28;20172;-77
2023/06/07 05:37:34;;;;;;;16.67;4.80;;;16.90;82.10;;;;;;5094179;28;20402;-77
2023/06/07 05:40:00;;;;;;;18.38;4.50;;;17.10;81.70;;;;;;5094436;28;20032;-77
2023/06/07 05:42:25;;;;;;;16.48;4.63;;;17.00;81.40;;;;;;5094546;28;20061;-76
2023/06/07 05:44:51;;;;;;;13.80;4.05;;;17.10;81.60;;;;;;5093986;28;20032;-79
2023/06/07 05:47:20;;;;;;;11.27;4.00;;;17.10;81.60;;;;;;5072016;28;20028;-76
2023/06/07 05:49:46;;;;;;;10.18;3.53;;;17.20;81.30;;;;;;5087918;28;20052;-78
2023/06/07 05:52:16;;;;;;;18.73;4.53;;;17.40;81.10;;;;;;5083953;28;20543;-77
2023/06/07 05:54:49;;;;;;;14.20;4.20;;;17.50;80.90;;;;;;5094142;28;20113;-77
2023/06/07 05:57:15;;;;;;;10.02;3.80;;;17.30;80.90;;;;;;5092657;28;20028;-82
2023/06/07 05:59:41;;;;;;;10.27;3.83;;;17.20;81.10;;;;;;5072635;28;20036;-79
2023/06/07 06:02:07;;;;;;;16.48;4.78;;;17.20;81.10;;;;;;5077218;28;20036;-78
2023/06/07 06:04:33;;;;;;;11.52;4.72;;;17.20;80.80;;;;;;5088922;28;20562;-80
2023/06/07 06:06:58;;;;;;;12.82;4.60;;;17.30;81.10;;;;;;5092403;28;20028;-82
2023/06/07 06:09:24;;;;;;;12.77;4.28;;;17.30;80.90;;;;;;5092769;28;20438;-80
2023/06/07 06:11:50;;;;;;;12.40;4.70;;;17.20;81.10;;;;;;5089411;28;20066;-80
2023/06/07 06:14:15;;;;;;;10.93;4.35;;;17.10;81.20;;;;;;5092309;28;20364;-81
2023/06/07 06:16:41;;;;;;;13.20;4.53;;;17.10;81.30;;;;;;5091537;28;20032;-80
2023/06/07 06:19:07;;;;;;;12.73;4.60;;;17.20;81.10;;;;;;5074860;28;20043;-81
2023/06/07 06:21:33;;;;;;;13.50;5.00;;;17.20;81.00;;;;;;5075234;28;20472;-81
2023/06/07 06:23:58;;;;;;;12.60;4.75;;;17.10;81.40;;;;;;5088932;28;20399;-80
2023/06/07 06:26:27;;;;;;;9.73;4.53;;;17.20;81.50;;;;;;5090012;28;20032;-79
2023/06/07 06:28:52;;;;;;;9.77;4.15;;;17.30;81.40;;;;;;5092327;28;20028;-79
2023/06/07 06:31:18;;;;;;;14.55;4.45;;;17.50;81.20;;;;;;5092059;28;20032;-82
2023/06/07 06:33:44;;;;;;;11.88;5.43;;;17.70;80.70;;;;;;5091033;28;20028;-82
2023/06/07 06:36:11;;;;;;;13.73;5.03;;;17.70;80.00;;;;;;5091235;28;20028;-80
2023/06/07 06:38:36;;;;;;;12.23;5.10;;;17.50;80.50;;;;;;5091037;28;20399;-78
2023/06/07 06:41:02;;;;;;;10.38;4.85;;;17.40;81.00;;;;;;5077249;28;20118;-80
2023/06/07 06:43:28;;;;;;;15.57;5.55;;;17.40;81.10;;;;;;5093099;28;20032;-79
2023/06/07 06:45:53;;;;;;;15.55;5.43;;;17.60;80.90;;;;;;5093039;28;20097;-80
2023/06/07 06:48:19;;;;;;;14.05;5.15;;;17.70;80.80;;;;;;5093749;28;20036;-79
2023/06/07 06:50:46;;;;;;;16.92;5.90;;;17.80;80.50;;;;;;5061604;28;20107;-80
2023/06/07 06:53:12;;;;;;;11.35;4.65;;;17.80;80.20;;;;;;5051995;28;20063;-80
2023/06/07 06:55:38;;;;;;;25.23;5.30;;;17.90;80.10;;;;;;5052533;28;20461;-77
2023/06/07 06:58:03;;;;;;;20.90;6.18;;;17.90;80.00;;;;;;5050604;28;20037;-79
2023/06/07 07:00:32;;;;;;;18.42;6.53;;;17.80;79.60;;;;;;5050899;28;20045;-80
2023/06/07 07:02:58;;;;;;;13.18;5.13;;;17.70;80.00;;;;;;5050997;28;20048;-79
2023/06/07 07:05:24;;;;;;;18.33;6.85;;;17.40;81.00;;;;;;5051167;28;20065;-78
2023/06/07 07:07:49;;;;;;;17.40;5.88;;;17.40;81.10;;;;;;5052205;28;20124;-79
2023/06/07 07:10:18;;;;;;;14.77;6.07;;;17.30;81.40;;;;;;5051049;28;20041;-80
2023/06/07 07:12:43;;;;;;;20.20;6.00;;;17.40;81.30;;;;;;5051242;28;20086;-79
2023/06/07 07:15:09;;;;;;;16.08;5.93;;;17.50;81.20;;;;;;5052779;28;20454;-80
2023/06/07 07:17:46;;;;;;;13.52;5.97;;;17.50;81.00;;;;;;5052708;28;20029;-79
2023/06/07 07:20:12;;;;;;;19.45;6.63;;;17.50;81.00;;;;;;5052423;28;20033;-80
2023/06/07 07:22:38;;;;;;;18.30;6.72;;;17.60;80.80;;;;;;5051792;28;20074;-79
2023/06/07 07:25:05;;;;;;;17.33;6.68;;;17.50;81.00;;;;;;5053149;28;20035;-80
2023/06/07 07:27:33;;;;;;;16.20;6.15;;;17.40;81.40;;;;;;5055099;28;20416;-79
2023/06/07 07:29:59;;;;;;;12.52;5.00;;;17.20;81.80;;;;;;5052801;28;20029;-80
2023/06/07 07:32:25;;;;;;;15.52;5.72;;;17.20;82.20;;;;;;5054102;28;20056;-79
2023/06/07 07:34:50;;;;;;;11.45;4.95;;;17.30;82.10;;;;;;5053499;28;20386;-77
2023/06/07 07:37:17;;;;;;;16.00;6.78;;;17.40;81.90;;;;;;5054942;28;20031;-79
2023/06/07 07:39:42;;;;;;;13.63;6.18;;;17.50;81.50;;;;;;5054913;28;20041;-79
2023/06/07 07:42:08;;;;;;;14.75;5.97;;;17.60;81.30;;;;;;5055340;28;20033;-80
2023/06/07 07:44:34;;;;;;;16.83;7.28;;;17.70;81.20;;;;;;5053428;28;20033;-79
2023/06/07 07:47:00;;;;;;;15.00;6.20;;;17.70;80.90;;;;;;5054957;28;20029;-76
2023/06/07 07:49:26;;;;;;;18.33;6.80;;;17.70;81.30;;;;;;5054834;28;20151;-79
2023/06/07 07:51:51;;;;;;;18.42;6.78;;;17.70;81.10;;;;;;5095034;28;20052;-79
2023/06/07 07:54:17;;;;;;;19.17;7.20;;;17.60;81.20;;;;;;5077983;28;20388;-79
2023/06/07 07:56:44;;;;;;;13.32;5.15;;;17.70;81.20;;;;;;5094458;28;20034;-78
2023/06/07 07:59:10;;;;;;;10.90;5.00;;;17.80;81.20;;;;;;5094265;28;20033;-79
2023/06/07 08:01:36;;;;;;;15.93;6.03;;;18.10;80.90;;;;;;5096413;28;20097;-78
2023/06/07 08:04:02;;;;;;;20.42;6.40;;;18.20;80.50;;;;;;5077024;28;20070;-79
2023/06/07 08:06:27;;;;;;;12.63;4.80;;;18.20;80.10;;;;;;5095621;28;20490;-79
2023/06/07 08:08:53;;;;;;;11.10;5.50;;;18.30;80.40;;;;;;5077950;28;20510;-79
2023/06/07 08:11:19;;;;;;;12.35;5.95;;;18.50;79.80;;;;;;5096050;28;20028;-78
2023/06/07 08:13:44;;;;;;;11.57;5.68;;;18.50;79.80;;;;;;5096122;28;20388;-79
2023/06/07 08:16:10;;;;;;;12.88;5.80;;;18.40;79.20;;;;;;5077833;28;20039;-79
2023/06/07 08:18:36;;;;;;;10.25;4.63;;;18.30;79.30;;;;;;5096070;28;20029;-78
2023/06/07 08:21:03;;;;;;;15.88;5.07;;;18.30;79.40;;;;;;5096159;28;20030;-80
2023/06/07 08:23:29;;;;;;;15.75;4.95;;;18.40;79.30;;;;;;5062620;28;20035;-78
2023/06/07 08:25:57;;;;;;;12.70;5.22;;;18.70;80.20;;;;;;5078370;28;20032;-78
2023/06/07 08:28:23;;;;;;;12.52;5.10;;;18.90;78.80;;;;;;5095775;28;20408;-79
2023/06/07 08:30:49;;;;;;;13.90;4.85;;;18.90;77.90;;;;;;5095873;28;20033;-80
2023/06/07 08:33:15;;;;;;;12.85;5.28;;;19.10;77.90;;;;;;5095811;28;20115;-79
2023/06/07 08:35:41;;;;;;;13.30;4.97;;;19.30;77.90;;;;;;5096064;28;20024;-80
2023/06/07 08:38:07;;;;;;;11.27;4.20;;;19.50;77.20;;;;;;5094286;28;20059;-81
2023/06/07 08:40:35;;;;;;;11.63;4.88;;;19.60;77.60;;;;;;5095263;28;20468;-80
2023/06/07 08:43:01;;;;;;;11.25;4.60;;;19.80;76.80;;;;;;5095543;28;20020;-81
2023/06/07 08:45:27;;;;;;;9.77;4.85;;;19.90;76.30;;;;;;5095737;28;20102;-80
2023/06/07 08:47:56;;;;;;;11.88;5.35;;;20.00;75.40;;;;;;5077576;28;20038;-81
2023/06/07 08:50:22;;;;;;;15.85;4.93;;;20.10;75.40;;;;;;5095363;28;20084;-78
2023/06/07 08:52:53;;;;;;;15.25;5.30;;;20.10;76.40;;;;;;5096291;28;20482;-80
2023/06/07 08:55:19;;;;;;;12.50;4.88;;;20.00;75.10;;;;;;5077208;28;20024;-81
2023/06/07 08:57:52;;;;;;;10.95;4.55;;;19.90;76.10;;;;;;5094780;28;20055;-78
2023/06/07 09:00:23;;;;;;;14.65;4.80;;;19.90;76.70;;;;;;5094926;28;20058;-80
2023/06/07 09:02:51;;;;;;;11.00;4.63;;;20.30;76.60;;;;;;5083567;28;20028;-79
2023/06/07 09:05:18;;;;;;;12.20;3.83;;;20.40;76.20;;;;;;5094647;28;20194;-78
2023/06/07 09:07:44;;;;;;;8.88;4.43;;;20.50;75.30;;;;;;5075438;28;20471;-80
2023/06/07 09:10:09;;;;;;;11.45;4.30;;;20.40;73.80;;;;;;5080025;28;20036;-85
2023/06/07 09:12:35;;;;;;;14.00;4.63;;;20.30;74.00;;;;;;5096553;28;20036;-82
2023/06/07 09:15:02;;;;;;;13.02;4.90;;;20.30;73.90;;;;;;5103373;28;20031;-81
2023/06/07 09:18:00;;;;;;;12.23;5.20;;;20.30;74.20;;;;;;5103656;28;20591;-80
2023/06/07 09:20:27;;;;;;;12.38;5.35;;;20.30;73.70;;;;;;5096910;28;20075;-80
2023/06/07 09:22:59;;;;;;;10.70;4.75;;;20.30;74.10;;;;;;5094726;28;20028;-80
2023/06/07 09:25:27;;;;;;;10.07;4.85;;;20.30;74.20;;;;;;5097432;28;20115;-82
2023/06/07 09:27:53;;;;;;;9.23;4.97;;;20.40;74.10;;;;;;5095355;28;20039;-81
2023/06/07 09:30:19;;;;;;;12.98;5.25;;;20.30;74.20;;;;;;5095108;28;20055;-81
2023/06/07 09:32:45;;;;;;;13.73;5.80;;;20.30;74.30;;;;;;5094918;28;20040;-83
2023/06/07 09:35:20;;;;;;;17.25;5.82;;;20.20;74.60;;;;;;5096322;28;20032;-82
2023/06/07 09:37:47;;;;;;;16.50;5.80;;;20.10;75.10;;;;;;5095577;28;20054;-81
2023/06/07 09:40:13;;;;;;;12.90;5.53;;;20.10;75.40;;;;;;5095649;28;20036;-82
2023/06/07 09:42:40;;;;;;;13.68;6.57;;;20.10;75.40;;;;;;5094856;28;20472;-81
2023/06/07 09:45:14;;;;;;;13.75;5.72;;;20.10;75.20;;;;;;5094298;28;20107;-81
2023/06/07 09:47:42;;;;;;;11.77;5.60;;;20.10;75.20;;;;;;5094365;28;20119;-82
2023/06/07 09:50:10;;;;;;;14.23;6.00;;;20.10;74.90;;;;;;5075998;28;20052;-81
2023/06/07 09:52:35;;;;;;;12.27;6.15;;;20.00;75.30;;;;;;5094442;28;20086;-80
2023/06/07 09:55:06;;;;;;;11.88;6.13;;;20.00;75.80;;;;;;5093598;28;20032;-81
2023/06/07 09:57:34;;;;;;;12.32;5.90;;;19.90;75.40;;;;;;5091263;28;20111;-80
2023/06/07 10:00:16;;;;;;;10.02;5.50;;;19.90;75.60;;;;;;5069959;28;20036;-79
2023/06/07 10:02:43;;;;;;;10.93;5.88;;;19.90;75.00;;;;;;5093031;28;20036;-77
2023/06/07 10:05:13;;;;;;;12.40;5.80;;;19.90;75.10;;;;;;5094485;28;20059;-80
2023/06/07 10:07:42;;;;;;;9.02;5.85;;;19.90;75.60;;;;;;5093903;28;20117;-83
2023/06/07 10:10:12;;;;;;;11.13;5.50;;;19.80;76.60;;;;;;5090755;28;20074;-81
2023/06/07 10:12:42;;;;;;;9.13;5.22;;;19.80;77.20;;;;;;5092732;28;20028;-80
2023/06/07 10:15:10;;;;;;;11.57;6.50;;;19.90;77.60;;;;;;5075191;28;20032;-79
2023/06/07 10:17:46;;;;;;;12.68;6.15;;;20.10;78.00;;;;;;5093665;28;20036;-81
2023/06/07 10:20:19;;;;;;;7.50;4.90;;;20.10;78.00;;;;;;5072405;28;20033;-79
2023/06/07 10:22:48;;;;;;;12.57;6.07;;;20.20;77.50;;;;;;5073585;28;20024;-81
2023/06/07 10:25:20;;;;;;;12.65;6.05;;;20.30;76.90;;;;;;5073088;28;20029;-82
2023/06/07 10:28:18;;;;;;;12.38;6.38;;;20.40;76.30;;;;;;5073197;28;20025;-81
2023/06/07 10:30:55;;;;;;;13.45;6.50;;;20.40;75.60;;;;;;5064919;28;20126;-82
2023/06/07 10:33:24;;;;;;;12.60;6.10;;;20.40;76.20;;;;;;5076358;28;20055;-81
2023/06/07 10:35:50;;;;;;;12.98;5.88;;;20.40;76.50;;;;;;5093712;28;20051;-82
2023/06/07 10:38:16;;;;;;;16.15;6.43;;;20.50;76.40;;;;;;5093918;28;20040;-81
2023/06/07 10:40:43;;;;;;;11.85;5.18;;;20.70;76.20;;;;;;5093617;28;20025;-82
2023/06/07 10:43:09;;;;;;;9.77;4.97;;;20.90;76.30;;;;;;5097095;28;20024;-83
2023/06/07 10:45:34;;;;;;;9.20;4.65;;;21.10;75.40;;;;;;5095387;28;20031;-82
2023/06/07 10:48:35;;;;;;;14.50;4.63;;;21.30;75.00;;;;;;5096816;28;20035;-83
2023/06/07 10:51:01;;;;;;;10.38;4.20;;;21.50;74.10;;;;;;5094881;28;20052;-83
2023/06/07 10:53:48;;;;;;;11.93;4.28;;;21.60;72.60;;;;;;5096266;28;20111;-82
2023/06/07 10:56:34;;;;;;;5.90;3.40;;;21.80;73.40;;;;;;5095161;28;20470;-83
2023/06/07 10:59:15;;;;;;;10.85;4.35;;;21.90;72.50;;;;;;5094936;28;20375;-83
2023/06/07 11:01:41;;;;;;;9.55;4.47;;;22.10;72.20;;;;;;5097112;28;20051;-83
2023/06/07 11:04:27;;;;;;;12.95;4.50;;;22.10;71.10;;;;;;5099051;28;20041;-83
2023/06/07 11:07:31;;;;;;;10.85;4.00;;;22.10;71.90;;;;;;5098917;28;20396;-82
2023/06/07 11:10:03;;;;;;;12.27;4.00;;;22.20;71.70;;;;;;5014727;28;20038;-79
2023/06/07 11:12:40;;;;;;;12.98;3.90;;;22.20;72.00;;;;;;5014874;28;20107;-81
2023/06/07 11:15:20;;;;;;;9.63;2.80;;;22.20;72.60;;;;;;5062507;28;20040;-81
2023/06/07 11:17:49;;;;;;;9.75;3.30;;;22.20;73.00;;;;;;5097339;28;20032;-81
2023/06/07 11:20:19;;;;;;;11.55;4.15;;;22.10;71.40;;;;;;5097520;28;20039;-82
2023/06/07 11:22:48;;;;;;;8.00;3.38;;;22.10;71.30;;;;;;5079632;28;20140;-80
2023/06/07 11:25:14;;;;;;;10.82;3.75;;;22.00;72.40;;;;;;5097386;28;20207;-80
2023/06/07 11:27:41;;;;;;;7.07;3.30;;;22.10;71.40;;;;;;5096573;28;20054;-81
2023/06/07 11:30:08;;;;;;;8.25;3.40;;;22.10;71.40;;;;;;5096870;28;20084;-82
2023/06/07 11:32:37;;;;;;;7.15;3.50;;;22.30;71.60;;;;;;5079768;28;20047;-82
2023/06/07 11:35:04;;;;;;;6.97;3.08;;;22.40;71.70;;;;;;5099233;28;20539;-81
2023/06/07 11:37:30;;;;;;;8.52;3.50;;;22.60;71.80;;;;;;5096651;28;20028;-82
2023/06/07 11:40:00;;;;;;;8.00;3.70;;;22.70;71.50;;;;;;5080838;28;20028;-83
2023/06/07 11:42:26;;;;;;;10.85;3.85;;;22.70;70.70;;;;;;5083699;28;20123;-82
2023/06/07 11:44:52;;;;;;;11.52;3.72;;;22.80;70.70;;;;;;5095663;28;20064;-82
2023/06/07 11:47:19;;;;;;;9.32;3.50;;;22.70;70.20;;;;;;5099354;28;20032;-83
2023/06/07 11:49:45;;;;;;;12.88;3.95;;;22.70;70.10;;;;;;5063426;28;20043;-83
2023/06/07 11:52:10;;;;;;;9.30;3.47;;;22.60;69.70;;;;;;5098446;28;20032;-81
2023/06/07 11:54:41;;;;;;;10.75;3.92;;;22.60;69.20;;;;;;5096517;28;20078;-81
2023/06/07 11:57:08;;;;;;;11.63;3.50;;;22.60;70.10;;;;;;5096267;28;20028;-81
2023/06/07 11:59:35;;;;;;;10.75;3.45;;;22.60;69.60;;;;;;5099905;28;20047;-81
2023/06/07 12:02:01;;;;;;;8.75;3.50;;;22.60;69.50;;;;;;5115309;28;20126;-81
2023/06/07 12:04:27;;;;;;;8.50;3.33;;;22.60;69.90;;;;;;5101575;28;20031;-82
2023/06/07 12:06:52;;;;;;;10.13;4.07;;;22.70;70.00;;;;;;5091525;28;20502;-80
2023/06/07 12:09:18;;;;;;;8.15;3.35;;;22.70;69.80;;;;;;5097896;28;20036;-79
2023/06/07 12:11:45;;;;;;;8.75;4.30;;;22.70;70.00;;;;;;5097895;28;20038;-81
2023/06/07 12:14:11;;;;;;;9.38;3.78;;;22.70;69.80;;;;;;5116658;28;20023;-81
2023/06/07 12:16:38;;;;;;;11.63;4.18;;;22.70;70.20;;;;;;5081447;28;20051;-81
2023/06/07 12:19:05;;;;;;;13.90;4.28;;;22.80;69.90;;;;;;5116391;28;20114;-80
2023/06/07 12:21:31;;;;;;;12.15;4.95;;;22.90;70.80;;;;;;5094090;28;20028;-80
2023/06/07 12:24:00;;;;;;;15.18;5.20;;;23.00;71.20;;;;;;5096328;28;20028;-80
2023/06/07 12:26:30;;;;;;;12.95;5.32;;;23.00;71.60;;;;;;5095290;28;20371;-80
2023/06/07 12:28:55;;;;;;;14.77;4.97;;;23.10;72.40;;;;;;5095780;28;20074;-80
2023/06/07 12:31:28;;;;;;;17.25;4.70;;;23.10;71.90;;;;;;5077786;28;20032;-80
2023/06/07 12:34:00;;;;;;;;;;;23.20;71.60;;;;;;5096216;28;20433;-80
2023/06/07 12:36:33;;;;;;;13.52;4.28;;;23.30;71.40;;;;;;5095549;28;19966;-80
2023/06/07 12:39:02;;;;;;;13.88;5.07;;;23.30;71.80;;;;;;5077620;28;20483;-80
2023/06/07 12:41:28;;;;;;;7.57;4.15;;;23.40;71.50;;;;;;5095567;28;20032;-81
2023/06/07 12:43:54;;;;;;;10.75;3.90;;;23.30;70.40;;;;;;5095580;28;20032;-81